首页
METAR-TAF:

METAR-TAF

机场 :

Cornelia, 喬治亞, 美国

纬度: 34-29-59N, 经度: 083-33-24W, 海拔: 441米

当前天气观测

该预报发布于21分钟前的05:35 UTC
风速3节,风向西北
温度 22°C
湿度 60%
气压 1020 hPa
能見度: 16.1公里
天空无云

METAR: KAJR 270535Z AUTO 32003KT 10SM CLR 22/14 A3011 RMK AO2 T02150144

时间: 01:56 (05:56 UTC)


TAF: 丢失

超过4000个机场的气象观测和天气预报(METAR&TAF报告)。

可查询的气象台以黄色和红色小点在地图上表示。

将鼠标移到小点上方,可查看气象台名称。

然后点击查看天气观测和预报。

如需切换地图:点击带黑十字的绿色按钮放大地图;点击带横线的绿色按钮缩小地图;或者点击绿色箭头查看邻近地区的地图。


METAR-TAF: